aviador You're here:

YCIN Decoded Metar

CURTIN/DERBY in _UNIDENTIFIED
Report Time2018-05-21 20:00:00
UTC Time2018-05-21 20:40:21
Flight Rules vfr VFR
Wind120° at 09 kt
W.Decomp.*RWY 11: 8.9 kt HW 1.3 kt RCW
W.Rank120° ranks 2
Current wind is above 120° avg. (7.8)
Visibility9999 m
Phenomena:N/A
Clouds:N/A
Expected CloudBase > 6,400 ft AGL from Temp-Dew spread
CeilingNone
Temp21°C (ISA +7)
Dew Point05°C (35% RH)
AAT16.6°C
QNH1013 hPa
Density Alt1,191 ft
Elevation299 ft
Report Wrong Elevation
Raw Report
YCIN 212000Z AUTO 12009KT 9999 // NCD 21/05 Q1013=

Extra information for YCIN:More info

Metar Taf Metar & Taf Last 4 Metars F.Rules Stats Wind Profile Meteogram Temp Stats Airport Information Weather charts Add Link Nearby VenuesMetar ALERT Operation Metar Decoded Social comments